sensor_id;sensor_type;location;lat;lon;timestamp;temperature;humidity
75170;SHT31;63749;49.186;9.222;2022-11-20T00:01:24;3.13;94.62
75170;SHT31;63749;49.186;9.222;2022-11-20T00:03:51;2.99;94.66
75170;SHT31;63749;49.186;9.222;2022-11-20T00:06:18;3.18;94.56
75170;SHT31;63749;49.186;9.222;2022-11-20T00:08:44;3.06;94.54
75170;SHT31;63749;49.186;9.222;2022-11-20T00:11:29;3.07;94.99
75170;SHT31;63749;49.186;9.222;2022-11-20T00:13:57;2.97;94.72
75170;SHT31;63749;49.186;9.222;2022-11-20T00:16:25;2.90;95.23
75170;SHT31;63749;49.186;9.222;2022-11-20T00:18:51;2.85;94.85
75170;SHT31;63749;49.186;9.222;2022-11-20T00:21:23;2.93;95.01
75170;SHT31;63749;49.186;9.222;2022-11-20T00:23:49;3.06;95.24
75170;SHT31;63749;49.186;9.222;2022-11-20T00:26:17;3.04;95.48
75170;SHT31;63749;49.186;9.222;2022-11-20T00:28:48;3.00;95.31
75170;SHT31;63749;49.186;9.222;2022-11-20T00:31:14;3.04;95.31
75170;SHT31;63749;49.186;9.222;2022-11-20T00:33:41;3.01;94.65
75170;SHT31;63749;49.186;9.222;2022-11-20T00:36:09;3.03;95.38
75170;SHT31;63749;49.186;9.222;2022-11-20T00:38:35;3.06;94.86
75170;SHT31;63749;49.186;9.222;2022-11-20T00:41:03;3.06;94.72
75170;SHT31;63749;49.186;9.222;2022-11-20T00:43:29;3.07;94.80
75170;SHT31;63749;49.186;9.222;2022-11-20T00:45:58;3.11;95.24
75170;SHT31;63749;49.186;9.222;2022-11-20T00:48:24;3.08;94.63
75170;SHT31;63749;49.186;9.222;2022-11-20T00:50:49;3.13;94.95
75170;SHT31;63749;49.186;9.222;2022-11-20T00:53:14;3.20;94.91
75170;SHT31;63749;49.186;9.222;2022-11-20T00:55:40;3.24;94.85
75170;SHT31;63749;49.186;9.222;2022-11-20T00:58:06;3.24;94.62
75170;SHT31;63749;49.186;9.222;2022-11-20T01:00:31;3.24;94.25
75170;SHT31;63749;49.186;9.222;2022-11-20T01:02:56;3.18;94.78
75170;SHT31;63749;49.186;9.222;2022-11-20T01:05:21;3.24;94.84
75170;SHT31;63749;49.186;9.222;2022-11-20T01:07:47;3.26;94.51
75170;SHT31;63749;49.186;9.222;2022-11-20T01:10:12;3.28;94.77
75170;SHT31;63749;49.186;9.222;2022-11-20T01:12:37;3.37;95.54
75170;SHT31;63749;49.186;9.222;2022-11-20T01:15:03;3.39;95.10
75170;SHT31;63749;49.186;9.222;2022-11-20T01:17:31;3.41;95.24
75170;SHT31;63749;49.186;9.222;2022-11-20T01:19:56;3.39;94.77
75170;SHT31;63749;49.186;9.222;2022-11-20T01:22:21;3.44;94.63
75170;SHT31;63749;49.186;9.222;2022-11-20T01:27:22;3.62;94.15
75170;SHT31;63749;49.186;9.222;2022-11-20T01:29:47;3.55;94.07
75170;SHT31;63749;49.186;9.222;2022-11-20T01:32:12;3.51;94.99
75170;SHT31;63749;49.186;9.222;2022-11-20T01:34:38;3.57;94.26
75170;SHT31;63749;49.186;9.222;2022-11-20T01:37:03;3.72;93.94
75170;SHT31;63749;49.186;9.222;2022-11-20T01:39:28;3.57;94.34
75170;SHT31;63749;49.186;9.222;2022-11-20T01:41:55;3.59;94.73
75170;SHT31;63749;49.186;9.222;2022-11-20T01:45:00;3.57;95.51
75170;SHT31;63749;49.186;9.222;2022-11-20T01:47:30;3.72;94.46
75170;SHT31;63749;49.186;9.222;2022-11-20T01:50:03;3.68;94.54
75170;SHT31;63749;49.186;9.222;2022-11-20T01:52:34;3.58;94.66
75170;SHT31;63749;49.186;9.222;2022-11-20T01:55:04;3.62;94.88
75170;SHT31;63749;49.186;9.222;2022-11-20T01:57:31;3.62;94.93
75170;SHT31;63749;49.186;9.222;2022-11-20T02:00:00;3.75;94.70
75170;SHT31;63749;49.186;9.222;2022-11-20T02:02:26;3.76;94.55
75170;SHT31;63749;49.186;9.222;2022-11-20T02:04:54;3.79;94.52
75170;SHT31;63749;49.186;9.222;2022-11-20T02:07:22;3.83;94.37
75170;SHT31;63749;49.186;9.222;2022-11-20T02:09:48;3.78;94.10
75170;SHT31;63749;49.186;9.222;2022-11-20T02:12:14;3.75;94.61
75170;SHT31;63749;49.186;9.222;2022-11-20T02:15:00;3.90;93.72
75170;SHT31;63749;49.186;9.222;2022-11-20T02:17:25;3.87;93.45
75170;SHT31;63749;49.186;9.222;2022-11-20T02:19:51;3.66;94.10
75170;SHT31;63749;49.186;9.222;2022-11-20T02:22:27;3.71;94.67
75170;SHT31;63749;49.186;9.222;2022-11-20T02:24:54;3.79;94.52
75170;SHT31;63749;49.186;9.222;2022-11-20T02:27:21;3.72;94.66
75170;SHT31;63749;49.186;9.222;2022-11-20T02:29:51;3.76;94.44
75170;SHT31;63749;49.186;9.222;2022-11-20T02:32:25;3.83;94.41
75170;SHT31;63749;49.186;9.222;2022-11-20T02:34:50;3.81;94.60
75170;SHT31;63749;49.186;9.222;2022-11-20T02:37:16;3.78;94.45
75170;SHT31;63749;49.186;9.222;2022-11-20T02:39:44;3.85;94.48
75170;SHT31;63749;49.186;9.222;2022-11-20T02:42:10;3.75;94.32
75170;SHT31;63749;49.186;9.222;2022-11-20T02:44:36;3.72;95.56
75170;SHT31;63749;49.186;9.222;2022-11-20T02:47:01;3.74;95.35
75170;SHT31;63749;49.186;9.222;2022-11-20T02:49:27;3.82;95.25
75170;SHT31;63749;49.186;9.222;2022-11-20T02:51:52;3.87;94.85
75170;SHT31;63749;49.186;9.222;2022-11-20T02:54:17;3.85;94.93
75170;SHT31;63749;49.186;9.222;2022-11-20T02:56:43;3.86;95.01
75170;SHT31;63749;49.186;9.222;2022-11-20T02:59:08;3.92;95.13
75170;SHT31;63749;49.186;9.222;2022-11-20T03:01:34;3.90;95.11
75170;SHT31;63749;49.186;9.222;2022-11-20T03:03:59;3.95;95.35
75170;SHT31;63749;49.186;9.222;2022-11-20T03:06:25;3.96;95.37
75170;SHT31;63749;49.186;9.222;2022-11-20T03:08:50;3.92;95.66
75170;SHT31;63749;49.186;9.222;2022-11-20T03:11:16;4.16;95.10
75170;SHT31;63749;49.186;9.222;2022-11-20T03:13:42;4.06;95.15
75170;SHT31;63749;49.186;9.222;2022-11-20T03:16:13;4.13;95.09
75170;SHT31;63749;49.186;9.222;2022-11-20T03:18:40;4.10;95.52
75170;SHT31;63749;49.186;9.222;2022-11-20T03:21:06;4.26;95.09
75170;SHT31;63749;49.186;9.222;2022-11-20T03:23:33;4.17;95.32
75170;SHT31;63749;49.186;9.222;2022-11-20T03:26:12;4.16;95.98
75170;SHT31;63749;49.186;9.222;2022-11-20T03:28:38;4.21;95.23
75170;SHT31;63749;49.186;9.222;2022-11-20T03:31:11;4.27;95.02
75170;SHT31;63749;49.186;9.222;2022-11-20T03:33:38;4.20;95.73
75170;SHT31;63749;49.186;9.222;2022-11-20T03:36:05;4.20;96.23
75170;SHT31;63749;49.186;9.222;2022-11-20T03:38:31;4.21;96.42
75170;SHT31;63749;49.186;9.222;2022-11-20T03:41:01;4.20;96.34
75170;SHT31;63749;49.186;9.222;2022-11-20T03:43:27;4.24;96.40
75170;SHT31;63749;49.186;9.222;2022-11-20T03:45:52;4.23;96.22
75170;SHT31;63749;49.186;9.222;2022-11-20T03:48:18;4.27;96.25
75170;SHT31;63749;49.186;9.222;2022-11-20T03:50:43;4.32;96.39
75170;SHT31;63749;49.186;9.222;2022-11-20T03:53:08;4.34;96.21
75170;SHT31;63749;49.186;9.222;2022-11-20T03:55:34;4.36;96.39
75170;SHT31;63749;49.186;9.222;2022-11-20T03:57:59;4.43;96.45
75170;SHT31;63749;49.186;9.222;2022-11-20T04:00:24;4.47;96.30
75170;SHT31;63749;49.186;9.222;2022-11-20T04:02:49;4.57;95.96
75170;SHT31;63749;49.186;9.222;2022-11-20T04:05:15;4.58;95.64
75170;SHT31;63749;49.186;9.222;2022-11-20T04:07:40;4.65;95.85
75170;SHT31;63749;49.186;9.222;2022-11-20T04:10:06;4.71;95.51
75170;SHT31;63749;49.186;9.222;2022-11-20T04:12:32;4.75;95.67
75170;SHT31;63749;49.186;9.222;2022-11-20T04:14:58;4.75;95.86
75170;SHT31;63749;49.186;9.222;2022-11-20T04:17:23;4.89;95.62
75170;SHT31;63749;49.186;9.222;2022-11-20T04:19:49;4.92;95.52
75170;SHT31;63749;49.186;9.222;2022-11-20T04:22:14;4.95;95.67
75170;SHT31;63749;49.186;9.222;2022-11-20T04:24:39;4.95;96.02
75170;SHT31;63749;49.186;9.222;2022-11-20T04:27:05;5.04;95.93
75170;SHT31;63749;49.186;9.222;2022-11-20T04:29:30;5.05;95.85
75170;SHT31;63749;49.186;9.222;2022-11-20T04:31:55;5.08;95.79
75170;SHT31;63749;49.186;9.222;2022-11-20T04:34:20;5.05;95.72
75170;SHT31;63749;49.186;9.222;2022-11-20T04:36:46;5.08;95.97
75170;SHT31;63749;49.186;9.222;2022-11-20T04:39:12;5.08;95.91
75170;SHT31;63749;49.186;9.222;2022-11-20T04:41:38;5.08;95.95
75170;SHT31;63749;49.186;9.222;2022-11-20T04:44:05;5.09;96.01
75170;SHT31;63749;49.186;9.222;2022-11-20T04:46:36;5.06;96.36
75170;SHT31;63749;49.186;9.222;2022-11-20T04:49:02;5.15;96.24
75170;SHT31;63749;49.186;9.222;2022-11-20T04:51:28;5.22;96.03
75170;SHT31;63749;49.186;9.222;2022-11-20T04:53:53;5.20;95.56
75170;SHT31;63749;49.186;9.222;2022-11-20T04:56:19;5.16;95.27
75170;SHT31;63749;49.186;9.222;2022-11-20T04:58:44;5.15;95.46
75170;SHT31;63749;49.186;9.222;2022-11-20T05:01:15;5.12;95.46
75170;SHT31;63749;49.186;9.222;2022-11-20T05:03:41;5.13;95.34
75170;SHT31;63749;49.186;9.222;2022-11-20T05:06:08;5.15;94.65
75170;SHT31;63749;49.186;9.222;2022-11-20T05:08:34;4.98;94.86
75170;SHT31;63749;49.186;9.222;2022-11-20T05:11:01;4.81;95.48
75170;SHT31;63749;49.186;9.222;2022-11-20T05:13:27;4.74;95.26
75170;SHT31;63749;49.186;9.222;2022-11-20T05:15:53;4.62;94.75
75170;SHT31;63749;49.186;9.222;2022-11-20T05:18:18;4.54;95.15
75170;SHT31;63749;49.186;9.222;2022-11-20T05:20:43;4.46;95.54
75170;SHT31;63749;49.186;9.222;2022-11-20T05:23:10;4.38;95.82
75170;SHT31;63749;49.186;9.222;2022-11-20T05:25:35;4.38;95.86
75170;SHT31;63749;49.186;9.222;2022-11-20T05:28:01;4.37;95.97
75170;SHT31;63749;49.186;9.222;2022-11-20T05:30:26;4.43;96.55
75170;SHT31;63749;49.186;9.222;2022-11-20T05:32:51;4.51;96.68
75170;SHT31;63749;49.186;9.222;2022-11-20T05:35:17;4.54;96.61
75170;SHT31;63749;49.186;9.222;2022-11-20T05:37:42;4.62;96.62
75170;SHT31;63749;49.186;9.222;2022-11-20T05:40:08;4.65;96.68
75170;SHT31;63749;49.186;9.222;2022-11-20T05:42:33;4.67;96.52
75170;SHT31;63749;49.186;9.222;2022-11-20T05:45:00;4.71;96.36
75170;SHT31;63749;49.186;9.222;2022-11-20T05:47:27;4.79;96.11
75170;SHT31;63749;49.186;9.222;2022-11-20T05:49:53;4.81;96.13
75170;SHT31;63749;49.186;9.222;2022-11-20T05:52:18;4.79;96.11
75170;SHT31;63749;49.186;9.222;2022-11-20T05:54:44;4.84;96.33
75170;SHT31;63749;49.186;9.222;2022-11-20T05:57:09;4.99;96.18
75170;SHT31;63749;49.186;9.222;2022-11-20T05:59:34;4.96;96.08
75170;SHT31;63749;49.186;9.222;2022-11-20T06:01:59;5.04;96.12
75170;SHT31;63749;49.186;9.222;2022-11-20T06:04:25;5.06;96.17
75170;SHT31;63749;49.186;9.222;2022-11-20T06:06:50;5.12;95.97
75170;SHT31;63749;49.186;9.222;2022-11-20T06:09:16;5.19;95.87
75170;SHT31;63749;49.186;9.222;2022-11-20T06:11:41;5.23;95.78
75170;SHT31;63749;49.186;9.222;2022-11-20T06:14:06;5.19;95.76
75170;SHT31;63749;49.186;9.222;2022-11-20T06:16:32;5.19;95.83
75170;SHT31;63749;49.186;9.222;2022-11-20T06:18:57;5.19;95.98
75170;SHT31;63749;49.186;9.222;2022-11-20T06:21:23;5.18;96.15
75170;SHT31;63749;49.186;9.222;2022-11-20T06:23:49;5.18;95.94
75170;SHT31;63749;49.186;9.222;2022-11-20T06:26:19;5.15;96.12
75170;SHT31;63749;49.186;9.222;2022-11-20T06:28:45;5.20;96.22
75170;SHT31;63749;49.186;9.222;2022-11-20T06:31:13;5.29;96.36
75170;SHT31;63749;49.186;9.222;2022-11-20T06:33:39;5.33;96.04
75170;SHT31;63749;49.186;9.222;2022-11-20T06:36:04;5.36;95.99
75170;SHT31;63749;49.186;9.222;2022-11-20T06:38:30;5.43;96.00
75170;SHT31;63749;49.186;9.222;2022-11-20T06:40:56;5.46;95.87
75170;SHT31;63749;49.186;9.222;2022-11-20T06:43:21;5.44;96.05
75170;SHT31;63749;49.186;9.222;2022-11-20T06:45:52;5.46;96.41
75170;SHT31;63749;49.186;9.222;2022-11-20T06:48:18;5.43;96.58
75170;SHT31;63749;49.186;9.222;2022-11-20T06:50:43;5.48;96.30
75170;SHT31;63749;49.186;9.222;2022-11-20T06:53:08;5.56;96.25
75170;SHT31;63749;49.186;9.222;2022-11-20T06:55:34;5.54;96.00
75170;SHT31;63749;49.186;9.222;2022-11-20T06:57:59;5.57;96.05
75170;SHT31;63749;49.186;9.222;2022-11-20T07:00:24;5.60;96.52
75170;SHT31;63749;49.186;9.222;2022-11-20T07:02:50;5.61;96.54
75170;SHT31;63749;49.186;9.222;2022-11-20T07:05:16;5.60;96.52
75170;SHT31;63749;49.186;9.222;2022-11-20T07:07:41;5.61;96.50
75170;SHT31;63749;49.186;9.222;2022-11-20T07:10:07;5.61;96.52
75170;SHT31;63749;49.186;9.222;2022-11-20T07:12:33;5.61;96.56
75170;SHT31;63749;49.186;9.222;2022-11-20T07:14:58;5.65;96.73
75170;SHT31;63749;49.186;9.222;2022-11-20T07:17:23;5.73;96.61
75170;SHT31;63749;49.186;9.222;2022-11-20T07:19:49;5.73;96.74
75170;SHT31;63749;49.186;9.222;2022-11-20T07:22:14;5.77;96.64
75170;SHT31;63749;49.186;9.222;2022-11-20T07:24:39;5.83;96.51
75170;SHT31;63749;49.186;9.222;2022-11-20T07:27:05;5.87;96.75
75170;SHT31;63749;49.186;9.222;2022-11-20T07:29:30;5.88;96.42
75170;SHT31;63749;49.186;9.222;2022-11-20T07:31:55;5.94;96.50
75170;SHT31;63749;49.186;9.222;2022-11-20T07:34:21;5.99;96.48
75170;SHT31;63749;49.186;9.222;2022-11-20T07:36:47;5.95;96.55
75170;SHT31;63749;49.186;9.222;2022-11-20T07:39:12;6.04;96.56
75170;SHT31;63749;49.186;9.222;2022-11-20T07:41:38;6.04;96.70
75170;SHT31;63749;49.186;9.222;2022-11-20T07:44:03;6.04;96.48
75170;SHT31;63749;49.186;9.222;2022-11-20T07:46:28;6.11;96.54
75170;SHT31;63749;49.186;9.222;2022-11-20T07:48:54;6.15;96.37
75170;SHT31;63749;49.186;9.222;2022-11-20T07:51:19;6.18;96.35
75170;SHT31;63749;49.186;9.222;2022-11-20T07:53:44;6.25;96.27
75170;SHT31;63749;49.186;9.222;2022-11-20T07:56:10;6.29;96.15
75170;SHT31;63749;49.186;9.222;2022-11-20T07:58:35;6.42;95.42
75170;SHT31;63749;49.186;9.222;2022-11-20T08:01:05;6.36;95.69
75170;SHT31;63749;49.186;9.222;2022-11-20T08:03:31;6.39;95.77
75170;SHT31;63749;49.186;9.222;2022-11-20T08:06:00;6.43;95.69
75170;SHT31;63749;49.186;9.222;2022-11-20T08:08:26;6.56;95.12
75170;SHT31;63749;49.186;9.222;2022-11-20T08:10:51;6.67;94.34
75170;SHT31;63749;49.186;9.222;2022-11-20T08:13:17;6.83;93.83
75170;SHT31;63749;49.186;9.222;2022-11-20T08:16:00;6.90;93.47
75170;SHT31;63749;49.186;9.222;2022-11-20T08:18:26;7.05;93.04
75170;SHT31;63749;49.186;9.222;2022-11-20T08:20:51;7.16;92.90
75170;SHT31;63749;49.186;9.222;2022-11-20T08:23:17;7.14;92.81
75170;SHT31;63749;49.186;9.222;2022-11-20T08:25:42;7.28;91.94
75170;SHT31;63749;49.186;9.222;2022-11-20T08:28:09;7.32;91.68
75170;SHT31;63749;49.186;9.222;2022-11-20T08:30:35;7.43;91.15
75170;SHT31;63749;49.186;9.222;2022-11-20T08:33:08;7.45;91.72
75170;SHT31;63749;49.186;9.222;2022-11-20T08:35:37;7.39;92.37
75170;SHT31;63749;49.186;9.222;2022-11-20T08:38:03;7.42;91.62
75170;SHT31;63749;49.186;9.222;2022-11-20T08:40:29;7.38;91.52
75170;SHT31;63749;49.186;9.222;2022-11-20T08:42:55;7.39;91.65
75170;SHT31;63749;49.186;9.222;2022-11-20T08:45:20;7.39;91.47
75170;SHT31;63749;49.186;9.222;2022-11-20T08:47:45;7.36;91.89
75170;SHT31;63749;49.186;9.222;2022-11-20T08:50:13;7.42;91.76
75170;SHT31;63749;49.186;9.222;2022-11-20T08:52:38;7.63;90.49
75170;SHT31;63749;49.186;9.222;2022-11-20T08:55:05;7.72;90.74
75170;SHT31;63749;49.186;9.222;2022-11-20T08:57:35;7.80;90.14
75170;SHT31;63749;49.186;9.222;2022-11-20T09:00:01;7.83;90.88
75170;SHT31;63749;49.186;9.222;2022-11-20T09:02:26;7.89;90.00
75170;SHT31;63749;49.186;9.222;2022-11-20T09:04:52;7.84;89.89
75170;SHT31;63749;49.186;9.222;2022-11-20T09:07:18;7.86;89.86
75170;SHT31;63749;49.186;9.222;2022-11-20T09:09:44;7.91;90.10
75170;SHT31;63749;49.186;9.222;2022-11-20T09:12:09;7.95;89.51
75170;SHT31;63749;49.186;9.222;2022-11-20T09:14:34;7.93;89.66
75170;SHT31;63749;49.186;9.222;2022-11-20T09:16:59;7.98;89.69
75170;SHT31;63749;49.186;9.222;2022-11-20T09:19:25;8.10;89.75
75170;SHT31;63749;49.186;9.222;2022-11-20T09:21:51;8.18;89.10
75170;SHT31;63749;49.186;9.222;2022-11-20T09:24:17;8.24;88.94
75170;SHT31;63749;49.186;9.222;2022-11-20T09:26:42;8.31;88.51
75170;SHT31;63749;49.186;9.222;2022-11-20T09:29:08;8.28;88.30
75170;SHT31;63749;49.186;9.222;2022-11-20T09:31:33;8.30;88.51
75170;SHT31;63749;49.186;9.222;2022-11-20T09:33:59;8.18;88.61
75170;SHT31;63749;49.186;9.222;2022-11-20T09:36:24;8.28;88.77
75170;SHT31;63749;49.186;9.222;2022-11-20T09:38:49;8.33;88.56
75170;SHT31;63749;49.186;9.222;2022-11-20T09:46:40;8.42;88.76
75170;SHT31;63749;49.186;9.222;2022-11-20T09:49:36;8.46;88.67
75170;SHT31;63749;49.186;9.222;2022-11-20T09:54:47;8.41;88.49
75170;SHT31;63749;49.186;9.222;2022-11-20T09:57:19;8.52;88.47
75170;SHT31;63749;49.186;9.222;2022-11-20T09:59:50;8.45;87.84
75170;SHT31;63749;49.186;9.222;2022-11-20T10:04:55;8.52;88.32
75170;SHT31;63749;49.186;9.222;2022-11-20T10:07:36;8.44;88.66
75170;SHT31;63749;49.186;9.222;2022-11-20T10:10:03;8.52;88.97
75170;SHT31;63749;49.186;9.222;2022-11-20T10:15:27;8.86;87.70
75170;SHT31;63749;49.186;9.222;2022-11-20T10:18:21;8.93;86.37
75170;SHT31;63749;49.186;9.222;2022-11-20T10:26:17;8.92;85.71
75170;SHT31;63749;49.186;9.222;2022-11-20T10:31:33;8.94;86.04
75170;SHT31;63749;49.186;9.222;2022-11-20T10:34:02;8.79;86.08
75170;SHT31;63749;49.186;9.222;2022-11-20T10:36:34;8.83;86.29
75170;SHT31;63749;49.186;9.222;2022-11-20T10:39:07;8.83;85.72
75170;SHT31;63749;49.186;9.222;2022-11-20T10:41:40;8.66;86.08
75170;SHT31;63749;49.186;9.222;2022-11-20T10:44:17;8.69;86.71
75170;SHT31;63749;49.186;9.222;2022-11-20T10:47:03;8.62;86.27
75170;SHT31;63749;49.186;9.222;2022-11-20T10:49:30;8.63;86.19
75170;SHT31;63749;49.186;9.222;2022-11-20T11:00:07;8.55;87.01
75170;SHT31;63749;49.186;9.222;2022-11-20T11:02:47;8.54;86.57
75170;SHT31;63749;49.186;9.222;2022-11-20T11:07:59;8.49;86.88
75170;SHT31;63749;49.186;9.222;2022-11-20T11:13:24;8.59;86.25
75170;SHT31;63749;49.186;9.222;2022-11-20T11:15:50;8.63;86.78
75170;SHT31;63749;49.186;9.222;2022-11-20T11:18:42;8.84;85.99
75170;SHT31;63749;49.186;9.222;2022-11-20T11:21:09;8.87;85.78
75170;SHT31;63749;49.186;9.222;2022-11-20T11:23:39;8.86;85.57
75170;SHT31;63749;49.186;9.222;2022-11-20T11:26:17;8.87;84.92
75170;SHT31;63749;49.186;9.222;2022-11-20T11:28:59;8.83;85.07
75170;SHT31;63749;49.186;9.222;2022-11-20T11:31:32;8.76;85.93
75170;SHT31;63749;49.186;9.222;2022-11-20T11:34:12;8.65;86.90
75170;SHT31;63749;49.186;9.222;2022-11-20T11:36:38;8.66;86.89
75170;SHT31;63749;49.186;9.222;2022-11-20T11:39:06;8.72;86.82
75170;SHT31;63749;49.186;9.222;2022-11-20T11:41:33;8.63;86.76
75170;SHT31;63749;49.186;9.222;2022-11-20T11:44:19;8.80;86.07
75170;SHT31;63749;49.186;9.222;2022-11-20T11:47:10;8.97;85.15
75170;SHT31;63749;49.186;9.222;2022-11-20T11:49:36;8.83;85.10
75170;SHT31;63749;49.186;9.222;2022-11-20T11:52:03;8.93;85.22
75170;SHT31;63749;49.186;9.222;2022-11-20T11:55:01;9.02;84.18
75170;SHT31;63749;49.186;9.222;2022-11-20T12:05:24;9.20;83.06
75170;SHT31;63749;49.186;9.222;2022-11-20T12:07:56;9.19;83.64
75170;SHT31;63749;49.186;9.222;2022-11-20T12:13:13;9.23;83.05
75170;SHT31;63749;49.186;9.222;2022-11-20T12:15:44;9.45;82.21
75170;SHT31;63749;49.186;9.222;2022-11-20T12:18:15;9.51;82.01
75170;SHT31;63749;49.186;9.222;2022-11-20T12:20:53;9.72;80.33
75170;SHT31;63749;49.186;9.222;2022-11-20T12:24:06;9.92;79.31
75170;SHT31;63749;49.186;9.222;2022-11-20T12:26:27;10.14;80.94
75170;SHT31;63749;49.186;9.222;2022-11-20T12:31:51;10.80;76.41
75170;SHT31;63749;49.186;9.222;2022-11-20T12:34:41;10.82;76.61
75170;SHT31;63749;49.186;9.222;2022-11-20T12:37:39;10.60;76.91
75170;SHT31;63749;49.186;9.222;2022-11-20T12:43:01;10.44;76.81
75170;SHT31;63749;49.186;9.222;2022-11-20T12:46:36;10.19;77.51
75170;SHT31;63749;49.186;9.222;2022-11-20T13:01:44;9.58;80.47
75170;SHT31;63749;49.186;9.222;2022-11-20T13:04:23;9.44;81.18
75170;SHT31;63749;49.186;9.222;2022-11-20T13:06:56;9.22;82.02
75170;SHT31;63749;49.186;9.222;2022-11-20T13:09:22;9.04;82.47
75170;SHT31;63749;49.186;9.222;2022-11-20T13:12:08;9.02;82.95
75170;SHT31;63749;49.186;9.222;2022-11-20T13:14:48;9.04;82.81
75170;SHT31;63749;49.186;9.222;2022-11-20T13:17:24;9.22;81.86
75170;SHT31;63749;49.186;9.222;2022-11-20T13:19:54;9.40;81.90
75170;SHT31;63749;49.186;9.222;2022-11-20T13:22:29;9.44;80.78
75170;SHT31;63749;49.186;9.222;2022-11-20T13:24:54;9.71;79.96
75170;SHT31;63749;49.186;9.222;2022-11-20T13:27:21;9.88;78.70
75170;SHT31;63749;49.186;9.222;2022-11-20T13:30:12;10.12;78.10
75170;SHT31;63749;49.186;9.222;2022-11-20T13:32:53;11.87;72.16
75170;SHT31;63749;49.186;9.222;2022-11-20T13:35:34;12.44;70.68
75170;SHT31;63749;49.186;9.222;2022-11-20T13:40:36;14.88;61.50
75170;SHT31;63749;49.186;9.222;2022-11-20T13:43:35;15.67;58.61
75170;SHT31;63749;49.186;9.222;2022-11-20T13:46:04;15.49;56.50
75170;SHT31;63749;49.186;9.222;2022-11-20T13:48:33;13.94;59.98
75170;SHT31;63749;49.186;9.222;2022-11-20T13:51:40;13.88;61.33
75170;SHT31;63749;49.186;9.222;2022-11-20T14:02:21;11.19;67.95
75170;SHT31;63749;49.186;9.222;2022-11-20T14:04:48;10.82;69.10
75170;SHT31;63749;49.186;9.222;2022-11-20T14:07:16;10.50;68.20
75170;SHT31;63749;49.186;9.222;2022-11-20T14:09:53;10.36;68.80
75170;SHT31;63749;49.186;9.222;2022-11-20T14:12:30;10.19;69.67
75170;SHT31;63749;49.186;9.222;2022-11-20T14:14:56;10.09;70.03
75170;SHT31;63749;49.186;9.222;2022-11-20T14:17:22;9.95;70.68
75170;SHT31;63749;49.186;9.222;2022-11-20T14:19:49;9.89;70.19
75170;SHT31;63749;49.186;9.222;2022-11-20T14:22:26;9.79;70.46
75170;SHT31;63749;49.186;9.222;2022-11-20T14:25:24;9.81;71.18
75170;SHT31;63749;49.186;9.222;2022-11-20T14:27:53;9.81;72.08
75170;SHT31;63749;49.186;9.222;2022-11-20T14:30:24;9.98;71.12
75170;SHT31;63749;49.186;9.222;2022-11-20T14:32:51;10.94;67.98
75170;SHT31;63749;49.186;9.222;2022-11-20T14:35:29;11.74;63.01
75170;SHT31;63749;49.186;9.222;2022-11-20T14:37:55;11.14;64.57
75170;SHT31;63749;49.186;9.222;2022-11-20T14:42:47;10.14;67.58
75170;SHT31;63749;49.186;9.222;2022-11-20T14:45:13;10.26;65.20
75170;SHT31;63749;49.186;9.222;2022-11-20T14:47:39;9.92;66.12
75170;SHT31;63749;49.186;9.222;2022-11-20T14:50:33;9.75;66.20
75170;SHT31;63749;49.186;9.222;2022-11-20T14:52:59;9.58;66.14
75170;SHT31;63749;49.186;9.222;2022-11-20T14:55:37;9.58;66.01
75170;SHT31;63749;49.186;9.222;2022-11-20T14:58:06;9.50;65.75
75170;SHT31;63749;49.186;9.222;2022-11-20T15:00:33;9.38;66.56
75170;SHT31;63749;49.186;9.222;2022-11-20T15:02:59;9.28;66.86
75170;SHT31;63749;49.186;9.222;2022-11-20T15:05:44;9.22;66.98
75170;SHT31;63749;49.186;9.222;2022-11-20T15:08:10;9.14;67.10
75170;SHT31;63749;49.186;9.222;2022-11-20T15:10:36;9.06;67.28
75170;SHT31;63749;49.186;9.222;2022-11-20T15:13:05;9.02;67.91
75170;SHT31;63749;49.186;9.222;2022-11-20T15:15:42;8.82;68.82
75170;SHT31;63749;49.186;9.222;2022-11-20T15:18:20;8.82;69.02
75170;SHT31;63749;49.186;9.222;2022-11-20T15:20:46;8.69;68.65
75170;SHT31;63749;49.186;9.222;2022-11-20T15:23:14;8.72;68.33
75170;SHT31;63749;49.186;9.222;2022-11-20T15:25:41;8.63;69.05
75170;SHT31;63749;49.186;9.222;2022-11-20T15:28:35;8.56;69.16
75170;SHT31;63749;49.186;9.222;2022-11-20T15:31:02;8.52;69.05
75170;SHT31;63749;49.186;9.222;2022-11-20T15:33:28;8.44;69.00
75170;SHT31;63749;49.186;9.222;2022-11-20T15:35:54;8.38;69.77
75170;SHT31;63749;49.186;9.222;2022-11-20T15:38:19;8.34;69.63
75170;SHT31;63749;49.186;9.222;2022-11-20T15:40:44;8.37;69.77
75170;SHT31;63749;49.186;9.222;2022-11-20T15:43:10;8.34;69.90
75170;SHT31;63749;49.186;9.222;2022-11-20T15:45:39;8.15;71.08
75170;SHT31;63749;49.186;9.222;2022-11-20T15:48:09;8.23;71.24
75170;SHT31;63749;49.186;9.222;2022-11-20T15:50:39;8.08;72.78
75170;SHT31;63749;49.186;9.222;2022-11-20T15:53:05;8.11;72.86
75170;SHT31;63749;49.186;9.222;2022-11-20T15:55:31;8.05;73.46
75170;SHT31;63749;49.186;9.222;2022-11-20T15:57:57;7.89;73.70
75170;SHT31;63749;49.186;9.222;2022-11-20T16:00:22;7.80;74.36
75170;SHT31;63749;49.186;9.222;2022-11-20T16:02:47;7.87;74.10
75170;SHT31;63749;49.186;9.222;2022-11-20T16:05:13;7.74;74.21
75170;SHT31;63749;49.186;9.222;2022-11-20T16:07:40;7.73;74.69
75170;SHT31;63749;49.186;9.222;2022-11-20T16:10:05;7.63;75.27
75170;SHT31;63749;49.186;9.222;2022-11-20T16:12:31;7.58;75.49
75170;SHT31;63749;49.186;9.222;2022-11-20T16:15:15;7.65;75.53
75170;SHT31;63749;49.186;9.222;2022-11-20T16:17:59;7.67;75.25
75170;SHT31;63749;49.186;9.222;2022-11-20T16:20:24;7.69;75.59
75170;SHT31;63749;49.186;9.222;2022-11-20T16:22:49;7.63;76.18
75170;SHT31;63749;49.186;9.222;2022-11-20T16:25:15;7.51;76.95
75170;SHT31;63749;49.186;9.222;2022-11-20T16:27:40;7.41;77.62
75170;SHT31;63749;49.186;9.222;2022-11-20T16:30:06;7.39;78.05
75170;SHT31;63749;49.186;9.222;2022-11-20T16:32:31;7.34;78.59
75170;SHT31;63749;49.186;9.222;2022-11-20T16:34:57;7.26;78.98
75170;SHT31;63749;49.186;9.222;2022-11-20T16:37:22;7.22;79.09
75170;SHT31;63749;49.186;9.222;2022-11-20T16:39:47;7.18;79.71
75170;SHT31;63749;49.186;9.222;2022-11-20T16:42:13;7.18;79.18
75170;SHT31;63749;49.186;9.222;2022-11-20T16:44:38;7.24;78.74
75170;SHT31;63749;49.186;9.222;2022-11-20T16:47:03;7.26;78.76
75170;SHT31;63749;49.186;9.222;2022-11-20T16:49:29;7.25;79.00
75170;SHT31;63749;49.186;9.222;2022-11-20T16:51:54;7.25;79.17
75170;SHT31;63749;49.186;9.222;2022-11-20T16:54:19;7.15;79.17
75170;SHT31;63749;49.186;9.222;2022-11-20T16:56:44;7.16;79.23
75170;SHT31;63749;49.186;9.222;2022-11-20T16:59:12;7.15;79.63
75170;SHT31;63749;49.186;9.222;2022-11-20T17:01:37;7.16;79.33
75170;SHT31;63749;49.186;9.222;2022-11-20T17:04:05;7.15;79.65
75170;SHT31;63749;49.186;9.222;2022-11-20T17:06:36;7.15;79.15
75170;SHT31;63749;49.186;9.222;2022-11-20T17:09:03;7.12;79.21
75170;SHT31;63749;49.186;9.222;2022-11-20T17:11:28;7.14;79.00
75170;SHT31;63749;49.186;9.222;2022-11-20T17:13:55;7.07;79.73
75170;SHT31;63749;49.186;9.222;2022-11-20T17:16:23;7.09;78.99